Pettus, Texas
Current Conditions -  °F | °C
As of 4:35 PM on Wednesday 22 Oct 2014 (Local Time) from KBEA Reporting Station
Clear Clear  
Wind Chill: 85°   Ceiling: Unl
Heat Index: 85°   Visibility: 10mi
Dew Point: 57°   Wind: 13mph
Humidity: 39%   Direction: 110°ESE
Pressure: 29.99"   Gusts: 17mph
Location:  28.62°N, 97.8°W
Report Text: KBEA 222135Z AUTO 11011G15KT 10SM CLR 29/14 A2999 RMK AO2 T02930139
Loading
Personal Weather Stations






























Interactive Weather Map
Tropical Storm Tracking
New forecast layout! Learn more

10-Day Weather Forecast

Advertisements
Track Severe Weather on mobile